CheckWX is a tool to help pilots better visualize weather data.  It is not intended as a substitute for an official pre-flight weather briefing.

06:15:02 UTC

KALB METAR
Albany International Airport
Albany, New York, USA
Current

24 mins ago

KALB 220551Z 18007KT 10SM CLR M03/M14 A3023 RMK AO2 SLP240 T10331139 11011 21044 56017
Observed
Feb-22 @ 05:51 UTC
Wind
  • 180° at 7 KTS
Visibility
10 SM
Flight Rules
VFR
Cloud Levels
  • Clear skies
Temperature
-3°C / 27°F
Dewpoint
-14°C / 7°F
Humidity
43%
Altimeter
30.23" Hg
Pressure
1023.72 hPa
Previous

1 hour ago

KALB 220451Z 17006KT 10SM CLR M03/M14 A3024 RMK AO2 SLP244 T10331144 400061117
Observed
Feb-22 @ 04:51 UTC
Wind
  • 170° at 6 KTS
Visibility
10 SM
Flight Rules
VFR
Cloud Levels
  • Clear skies
Temperature
-3°C / 27°F
Dewpoint
-14°C / 7°F
Humidity
43%
Altimeter
30.24" Hg
Pressure
1024.02 hPa
Previous

2 hours ago

KALB 220351Z 18005KT 10SM CLR M03/M14 A3026 RMK AO2 SLP251 T10331144
Observed
Feb-22 @ 03:51 UTC
Wind
  • 180° at 5 KTS
Visibility
10 SM
Flight Rules
VFR
Cloud Levels
  • Clear skies
Temperature
-3°C / 27°F
Dewpoint
-14°C / 7°F
Humidity
43%
Altimeter
30.26" Hg
Pressure
1024.72 hPa